Time;durP1;ratioP1;P1;durP2;ratioP2;P2;SDS_P1;SDS_P2;PMS_P1;PMS_P2;Temp;Humidity;BMP_temperature;BMP_pressure;BME280_temperature;BME280_humidity;BME280_pressure;Samples;Min_cycle;Max_cycle;Signal;HPM_P1;HPM_P2
2022/05/31 00:01:18;;;;;;;3.40;1.58;;;;;;;5.91;91.56;98029.31;5054739;28;20344;-71
2022/05/31 00:03:44;;;;;;;2.60;1.80;;;;;;;6.05;91.37;98037.88;5046671;28;20088;-71
2022/05/31 00:06:09;;;;;;;2.30;1.60;;;;;;;5.92;91.04;98037.13;5046788;28;20032;-71
2022/05/31 00:08:35;;;;;;;2.65;1.55;;;;;;;6.08;91.25;98032.63;5046696;28;20033;-71
2022/05/31 00:11:02;;;;;;;5.63;2.03;;;;;;;6.12;91.25;98034.31;5046644;28;20028;-71
2022/05/31 00:13:28;;;;;;;3.15;1.85;;;;;;;6.10;91.00;98030.84;5046558;28;20033;-71
2022/05/31 00:15:53;;;;;;;2.28;1.60;;;;;;;6.01;90.97;98021.34;5056030;28;20320;-71
2022/05/31 00:18:19;;;;;;;3.28;1.83;;;;;;;6.02;90.59;98017.84;5065678;28;20025;-71
2022/05/31 00:20:44;;;;;;;2.80;1.83;;;;;;;5.92;91.05;98015.38;5064144;28;20033;-71
2022/05/31 00:23:10;;;;;;;2.30;1.50;;;;;;;5.88;91.42;98021.50;5065767;28;20269;-71
2022/05/31 00:25:36;;;;;;;2.53;1.35;;;;;;;5.87;90.70;98022.41;5065549;28;20052;-71
2022/05/31 00:28:02;;;;;;;3.35;1.70;;;;;;;5.76;90.87;98013.78;5064369;28;20024;-71
2022/05/31 00:30:27;;;;;;;1.67;1.23;;;;;;;5.88;90.71;98024.13;5051408;28;20032;-71
2022/05/31 00:32:53;;;;;;;1.75;1.38;;;;;;;5.76;91.49;98013.78;5046230;28;20049;-71
2022/05/31 00:35:28;;;;;;;3.15;1.85;;;;;;;5.76;92.10;98013.78;5046177;28;20026;-71
2022/05/31 00:37:54;;;;;;;1.83;1.50;;;;;;;5.85;92.37;98021.53;5054001;28;20028;-71
2022/05/31 00:40:23;;;;;;;2.13;1.73;;;;;;;5.95;92.45;98023.19;5065117;28;20324;-71
2022/05/31 00:43:07;;;;;;;2.03;1.48;;;;;;;5.86;92.90;98018.06;5058548;28;20021;-71
2022/05/31 00:46:02;;;;;;;2.78;2.00;;;;;;;5.94;92.97;98017.09;5046004;28;20051;-71
2022/05/31 00:48:35;;;;;;;1.92;1.40;;;;;;;5.86;92.61;98023.28;5046190;28;20320;-71
2022/05/31 00:51:10;;;;;;;1.63;1.35;;;;;;;5.92;91.88;98016.22;5045763;28;20036;-71
2022/05/31 00:53:44;;;;;;;2.35;1.70;;;;;;;5.69;93.28;98018.19;5064236;28;20028;-71
2022/05/31 00:56:20;;;;;;;1.67;1.33;;;;;;;5.86;93.54;98020.66;5058877;28;20025;-71
2022/05/31 00:59:18;;;;;;;1.70;1.17;;;;;;;5.95;92.40;98015.34;5056238;28;20033;-71
2022/05/31 01:01:47;;;;;;;2.15;1.75;;;;;;;5.93;92.42;98011.88;5046821;28;20038;-71
2022/05/31 01:04:14;;;;;;;1.70;1.40;;;;;;;5.94;92.50;98021.44;5045641;28;20029;-71
2022/05/31 01:06:39;;;;;;;4.05;2.25;;;;;;;5.98;92.62;98020.53;5045621;28;20258;-71
2022/05/31 01:09:06;;;;;;;6.00;1.85;;;;;;;6.05;92.27;98027.44;5045518;28;20043;-71
2022/05/31 01:11:35;;;;;;;3.53;1.60;;;;;;;6.07;92.05;98020.41;5045481;28;20025;-71
2022/05/31 01:14:01;;;;;;;2.47;1.63;;;;;;;6.05;92.20;98022.22;5061628;28;20383;-71
2022/05/31 01:16:26;;;;;;;1.55;1.45;;;;;;;6.03;92.87;98030.06;5045412;28;20032;-71
2022/05/31 01:18:52;;;;;;;2.45;1.48;;;;;;;6.09;92.48;98029.13;5045386;28;20030;-71
2022/05/31 01:21:18;;;;;;;1.75;1.42;;;;;;;6.05;92.30;98033.50;5045231;28;20383;-71
2022/05/31 01:23:59;;;;;;;1.83;1.52;;;;;;;6.03;92.26;98029.19;5045226;28;20217;-71
2022/05/31 01:26:43;;;;;;;2.75;1.23;;;;;;;5.71;92.16;98020.78;5047690;28;20088;-71
2022/05/31 01:29:23;;;;;;;2.00;1.20;;;;;;;5.82;93.27;98029.44;5064312;28;20021;-71
2022/05/31 01:32:02;;;;;;;1.90;1.42;;;;;;;5.79;93.99;98021.59;5057178;28;20051;-71
2022/05/31 01:34:34;;;;;;;1.38;1.27;;;;;;;5.79;94.00;98029.44;5055758;28;20025;-71
2022/05/31 01:37:00;;;;;;;2.90;1.63;;;;;;;5.79;94.70;98024.22;5064932;28;20028;-71
2022/05/31 01:39:44;;;;;;;2.05;1.15;;;;;;;5.85;94.44;98024.16;5064928;28;20033;-71
2022/05/31 01:42:30;;;;;;;1.83;1.30;;;;;;;5.83;93.47;98010.25;5064805;28;20029;-71
2022/05/31 01:45:06;;;;;;;1.63;1.20;;;;;;;5.68;93.70;98006.03;5064799;28;20028;-71
2022/05/31 01:47:33;;;;;;;2.35;1.50;;;;;;;5.64;94.69;98003.47;5064747;28;20095;-71
2022/05/31 01:49:59;;;;;;;2.33;1.40;;;;;;;5.77;95.55;98005.06;5064510;28;20359;-71
2022/05/31 01:52:26;;;;;;;3.28;1.48;;;;;;;5.87;94.82;98006.72;5064073;28;20029;-71
2022/05/31 01:54:53;;;;;;;2.97;1.75;;;;;;;5.95;94.15;98005.75;5063007;28;20217;-71
2022/05/31 01:57:19;;;;;;;2.10;1.52;;;;;;;5.93;94.34;98001.44;5062711;28;20025;-71
2022/05/31 01:59:49;;;;;;;2.53;1.45;;;;;;;6.01;93.45;97997.00;5063411;28;20391;-72
2022/05/31 02:02:16;;;;;;;3.08;1.52;;;;;;;6.05;93.52;98003.91;5064363;28;20021;-71
2022/05/31 02:04:43;;;;;;;4.95;1.98;;;;;;;6.06;93.46;98000.41;5064501;28;20376;-71
2022/05/31 02:07:12;;;;;;;1.60;1.20;;;;;;;6.08;93.19;98006.50;5064437;28;20025;-71
2022/05/31 02:09:38;;;;;;;5.00;1.90;;;;;;;5.84;92.68;97996.31;5064459;28;20312;-71
2022/05/31 02:12:06;;;;;;;1.42;1.10;;;;;;;5.67;93.88;97998.22;5063549;28;20009;-71
2022/05/31 02:14:32;;;;;;;3.00;1.60;;;;;;;5.81;93.79;98011.97;5049202;28;20252;-71
2022/05/31 02:16:57;;;;;;;2.38;1.52;;;;;;;5.82;94.05;98008.53;5044276;28;20021;-71
2022/05/31 02:19:26;;;;;;;2.20;1.60;;;;;;;5.71;93.92;98000.78;5044283;28;20351;-71
2022/05/31 02:21:54;;;;;;;1.40;1.30;;;;;;;5.63;93.82;97999.13;5044356;28;20029;-71
2022/05/31 02:24:20;;;;;;;3.00;1.63;;;;;;;5.67;94.07;97998.22;5044242;28;20025;-71
2022/05/31 02:26:45;;;;;;;2.25;1.73;;;;;;;5.44;94.72;98000.19;5044208;28;20067;-71
2022/05/31 02:29:15;;;;;;;2.28;1.50;;;;;;;5.14;95.31;97995.22;5044110;28;20025;-71
2022/05/31 02:31:41;;;;;;;1.48;1.25;;;;;;;5.24;96.38;98002.09;5044406;28;20017;-71
2022/05/31 02:34:08;;;;;;;2.13;1.60;;;;;;;5.40;95.83;97998.47;5044045;28;20017;-71
2022/05/31 02:36:34;;;;;;;3.38;1.58;;;;;;;5.39;95.31;97999.34;5044018;28;20025;-71
2022/05/31 02:39:01;;;;;;;2.00;1.45;;;;;;;5.31;95.99;97993.34;5057771;28;20118;-71
2022/05/31 02:41:26;;;;;;;2.30;1.67;;;;;;;5.39;96.02;97997.63;5063869;28;20021;-71
2022/05/31 02:43:52;;;;;;;3.65;1.50;;;;;;;5.30;95.59;97996.81;5063829;28;20025;-71
2022/05/31 02:46:18;;;;;;;2.65;2.00;;;;;;;5.25;94.69;97993.41;5064105;28;20092;-71
2022/05/31 02:48:43;;;;;;;3.65;1.40;;;;;;;5.30;93.65;97995.09;5064126;28;20343;-71
2022/05/31 02:51:09;;;;;;;3.92;1.48;;;;;;;5.22;93.80;97989.06;5063737;28;20105;-71
2022/05/31 02:53:34;;;;;;;1.77;1.48;;;;;;;5.27;93.62;97984.69;5064107;28;20292;-71
2022/05/31 02:56:00;;;;;;;1.80;1.38;;;;;;;5.16;94.41;97981.28;5063773;28;20028;-71
2022/05/31 02:58:26;;;;;;;2.42;1.58;;;;;;;5.20;93.98;97984.75;5063752;28;20362;-71
2022/05/31 03:00:53;;;;;;;2.90;1.83;;;;;;;5.19;93.77;97983.88;5063699;28;20021;-71
2022/05/31 03:03:18;;;;;;;5.07;1.58;;;;;;;5.11;94.30;97990.91;5064329;28;20025;-71
2022/05/31 03:05:44;;;;;;;2.30;1.65;;;;;;;5.14;93.22;97984.78;5067859;28;20340;-71
2022/05/31 03:08:09;;;;;;;2.72;1.45;;;;;;;5.09;93.72;97976.16;5067796;28;20032;-71
2022/05/31 03:10:38;;;;;;;2.65;1.75;;;;;;;4.85;93.74;97981.56;5055429;28;20088;-71
2022/05/31 03:13:04;;;;;;;1.98;1.42;;;;;;;4.82;94.37;97979.84;5047765;28;20343;-71
2022/05/31 03:15:33;;;;;;;5.63;1.83;;;;;;;4.89;94.28;97983.25;5047670;28;20025;-71
2022/05/31 03:18:06;;;;;;;1.83;1.30;;;;;;;4.94;94.35;97982.38;5047625;28;20384;-71
2022/05/31 03:20:46;;;;;;;1.67;1.45;;;;;;;4.86;94.05;97978.06;5047510;28;20033;-71
2022/05/31 03:23:17;;;;;;;1.58;1.40;;;;;;;4.82;94.01;97972.03;5047523;28;20021;-71
2022/05/31 03:25:46;;;;;;;2.83;1.80;;;;;;;4.83;94.14;97975.47;5047498;28;20075;-71
2022/05/31 03:28:13;;;;;;;2.17;1.70;;;;;;;4.76;94.28;97974.66;5047438;28;20021;-71
2022/05/31 03:30:39;;;;;;;2.85;1.45;;;;;;;4.67;93.49;97966.91;5047481;28;20314;-72
2022/05/31 03:33:07;;;;;;;2.08;1.38;;;;;;;4.66;94.18;97969.53;5047337;28;20025;-71
2022/05/31 03:35:33;;;;;;;3.55;1.35;;;;;;;4.58;93.51;97964.34;5047311;28;20029;-72
2022/05/31 03:37:59;;;;;;;1.73;1.08;;;;;;;4.67;94.20;97968.63;5047224;28;20084;-71
2022/05/31 03:43:08;;;;;;;1.65;1.45;;;;;;;4.69;93.00;97953.88;5047203;28;20028;-71
2022/05/31 03:45:39;;;;;;;1.92;1.35;;;;;;;4.58;92.79;97964.34;5047133;28;20084;-71
2022/05/31 03:48:05;;;;;;;1.88;1.60;;;;;;;4.63;93.31;97964.31;5062591;28;20102;-71
2022/05/31 03:50:31;;;;;;;2.38;1.45;;;;;;;4.71;93.60;97963.41;5066585;28;20045;-71
2022/05/31 03:52:57;;;;;;;1.90;1.30;;;;;;;4.75;92.97;97964.25;5066974;28;20028;-71
2022/05/31 03:55:23;;;;;;;1.35;1.10;;;;;;;4.70;93.81;97966.00;5064416;28;20041;-71
2022/05/31 03:57:50;;;;;;;5.95;1.65;;;;;;;4.68;93.52;97967.78;5060832;28;20324;-71
2022/05/31 04:00:16;;;;;;;1.98;1.63;;;;;;;4.81;93.59;97975.47;5065179;28;20032;-71
2022/05/31 04:02:42;;;;;;;3.13;1.90;;;;;;;4.62;92.49;97967.81;5046931;28;20029;-72
2022/05/31 04:05:08;;;;;;;2.53;1.52;;;;;;;4.57;92.39;97974.78;5050916;28;20031;-73
2022/05/31 04:07:35;;;;;;;1.83;1.38;;;;;;;4.50;92.79;97971.38;5056512;28;20044;-72
2022/05/31 04:10:03;;;;;;;5.05;1.50;;;;;;;4.45;93.26;97976.63;5066639;28;20092;-71
2022/05/31 04:12:36;;;;;;;2.05;1.45;;;;;;;4.63;93.48;97979.97;5066543;28;20048;-71
2022/05/31 04:15:01;;;;;;;1.80;1.40;;;;;;;4.63;94.46;97982.56;5065942;28;20092;-71
2022/05/31 04:17:27;;;;;;;3.13;1.83;;;;;;;4.82;94.73;97986.78;5066482;28;20032;-71
2022/05/31 04:19:52;;;;;;;3.75;1.83;;;;;;;4.90;94.31;97980.63;5066470;28;20021;-71
2022/05/31 04:22:17;;;;;;;2.15;1.50;;;;;;;4.74;93.67;97973.81;5066343;28;20084;-71
2022/05/31 04:24:43;;;;;;;2.42;1.67;;;;;;;4.46;94.34;97956.63;5066415;28;20044;-71
2022/05/31 04:27:15;;;;;;;2.13;1.58;;;;;;;4.57;95.72;97966.97;5066302;28;20045;-71
2022/05/31 04:29:40;;;;;;;1.90;1.25;;;;;;;4.70;95.69;97971.22;5066265;28;20020;-71
2022/05/31 04:32:06;;;;;;;3.45;1.85;;;;;;;4.80;95.74;97967.66;5066218;28;20103;-72
2022/05/31 04:34:31;;;;;;;2.25;1.40;;;;;;;5.46;95.83;97964.47;5066188;28;20374;-71
2022/05/31 04:36:57;;;;;;;1.60;1.27;;;;;;;6.48;92.32;97965.88;5066146;28;20186;-71
2022/05/31 04:39:22;;;;;;;2.45;1.60;;;;;;;7.46;87.34;97962.56;5066113;28;20044;-71
2022/05/31 04:41:48;;;;;;;1.38;1.13;;;;;;;8.23;83.16;97964.56;5065965;28;20036;-71
2022/05/31 04:44:15;;;;;;;1.58;1.20;;;;;;;8.92;79.87;97967.41;5066048;28;20067;-71
2022/05/31 04:46:42;;;;;;;1.92;1.55;;;;;;;9.44;78.64;97972.25;5065943;28;20021;-71
2022/05/31 04:49:07;;;;;;;1.73;1.30;;;;;;;9.87;76.58;97972.88;5065888;28;20063;-71
2022/05/31 04:51:34;;;;;;;1.35;1.10;;;;;;;10.48;75.36;97989.53;5065903;28;20029;-71
2022/05/31 04:54:04;;;;;;;2.63;1.17;;;;;;;10.76;71.22;97992.22;5066080;28;20359;-71
2022/05/31 04:56:30;;;;;;;1.42;1.05;;;;;;;10.91;70.12;97997.00;5066316;28;20327;-71
2022/05/31 04:58:56;;;;;;;1.30;1.13;;;;;;;10.97;71.65;97994.19;5065727;28;20025;-71
2022/05/31 05:01:22;;;;;;;4.72;1.10;;;;;;;10.70;71.81;97995.88;5065616;28;20313;-71
2022/05/31 05:03:48;;;;;;;1.35;1.10;;;;;;;11.54;71.17;97997.56;5065806;28;20021;-71
2022/05/31 05:06:16;;;;;;;2.55;1.23;;;;;;;12.02;69.51;97995.94;5065616;28;20321;-71
2022/05/31 05:08:42;;;;;;;2.08;1.05;;;;;;;12.12;69.31;98007.88;5065573;28;20021;-71
2022/05/31 05:11:11;;;;;;;1.30;1.10;;;;;;;12.02;68.74;98001.22;5065456;28;20216;-71
2022/05/31 05:13:37;;;;;;;1.20;1.10;;;;;;;12.46;67.88;98008.41;5065570;28;20028;-72
2022/05/31 05:16:04;;;;;;;1.52;1.13;;;;;;;12.65;68.17;98009.44;5065378;28;20093;-72
2022/05/31 05:18:30;;;;;;;1.50;1.20;;;;;;;13.15;67.54;98001.38;5065342;28;20066;-72
2022/05/31 05:20:56;;;;;;;2.35;1.10;;;;;;;13.13;66.50;98003.22;5065223;28;20248;-72
2022/05/31 05:23:21;;;;;;;1.20;1.10;;;;;;;13.65;65.40;98006.34;5065238;28;20333;-72
2022/05/31 05:25:51;;;;;;;1.45;1.20;;;;;;;14.21;65.15;98011.88;5065137;28;20074;-72
2022/05/31 05:31:01;;;;;;;1.55;1.15;;;;;;;14.56;63.36;98025.28;5065097;28;20087;-72
2022/05/31 05:33:28;;;;;;;2.47;1.20;;;;;;;14.71;64.14;98024.63;5065342;28;20096;-72
2022/05/31 05:35:53;;;;;;;5.70;1.30;;;;;;;15.00;65.07;98021.47;5065060;28;20066;-72
2022/05/31 05:38:18;;;;;;;1.25;1.13;;;;;;;15.19;64.60;98026.81;5064934;28;20033;-72
2022/05/31 05:40:44;;;;;;;1.92;1.33;;;;;;;15.58;62.72;98024.03;5064938;28;20032;-72
2022/05/31 05:43:10;;;;;;;1.42;1.20;;;;;;;15.52;63.16;98025.22;5064975;28;20020;-72
2022/05/31 05:45:36;;;;;;;1.20;1.08;;;;;;;16.12;62.75;98038.09;5064829;28;20025;-72
2022/05/31 05:48:02;;;;;;;1.42;1.33;;;;;;;16.27;62.42;98025.81;5064758;28;20021;-72
2022/05/31 05:50:28;;;;;;;3.40;1.20;;;;;;;16.16;61.51;98015.75;5064590;28;20261;-72
2022/05/31 05:52:57;;;;;;;1.83;1.20;;;;;;;16.79;59.15;98017.72;5064716;28;20036;-72
2022/05/31 05:55:23;;;;;;;3.58;1.27;;;;;;;17.01;58.84;98009.44;5064681;28;20316;-72
2022/05/31 05:57:48;;;;;;;4.13;1.40;;;;;;;17.39;57.87;98009.97;5064627;28;20027;-72
2022/05/31 06:00:14;;;;;;;4.53;1.10;;;;;;;17.87;57.57;98013.38;5064635;28;20067;-71
2022/05/31 06:02:44;;;;;;;1.67;1.25;;;;;;;18.33;57.21;98015.06;5064378;28;20092;-72
2022/05/31 06:05:14;;;;;;;2.00;1.33;;;;;;;18.23;56.74;98021.00;5064494;28;20402;-72
2022/05/31 06:07:51;;;;;;;3.63;1.40;;;;;;;17.11;58.51;98011.50;5064659;28;20020;-72
2022/05/31 06:10:26;;;;;;;2.05;1.50;;;;;;;18.41;56.29;98025.25;5064455;28;20024;-72
2022/05/31 06:13:02;;;;;;;1.48;1.20;;;;;;;18.89;55.10;98030.28;5064322;28;20394;-72
2022/05/31 06:15:31;;;;;;;1.55;1.20;;;;;;;18.97;53.34;98022.66;5064305;28;20070;-72
2022/05/31 06:18:00;;;;;;;1.83;1.30;;;;;;;18.77;55.03;98023.03;5064273;28;20025;-72
2022/05/31 06:20:29;;;;;;;3.50;1.20;;;;;;;18.74;55.00;98018.75;5064191;28;20010;-72
2022/05/31 06:22:55;;;;;;;1.55;1.33;;;;;;;17.98;55.22;98012.75;5064183;28;20225;-71
2022/05/31 06:25:21;;;;;;;2.78;1.30;;;;;;;18.71;57.08;98018.94;5064181;28;20021;-72
2022/05/31 06:27:47;;;;;;;1.73;1.23;;;;;;;18.03;56.91;98013.34;5064137;28;20052;-72
2022/05/31 06:30:13;;;;;;;3.30;1.08;;;;;;;18.87;53.33;98024.19;5064342;28;20017;-72
2022/05/31 06:32:38;;;;;;;2.05;1.30;;;;;;;19.72;50.93;98020.47;5064087;28;20108;-72
2022/05/31 06:35:05;;;;;;;1.90;1.40;;;;;;;19.92;49.52;98025.34;5064015;28;20033;-72
2022/05/31 06:37:30;;;;;;;2.85;1.33;;;;;;;20.25;50.51;98031.13;5064017;28;20092;-72
2022/05/31 06:39:56;;;;;;;5.45;1.35;;;;;;;20.67;48.49;98041.59;5062518;28;20023;-72
2022/05/31 06:42:22;;;;;;;1.42;1.08;;;;;;;21.41;45.89;98033.63;5063864;28;20245;-71
2022/05/31 06:44:47;;;;;;;2.20;1.27;;;;;;;22.01;44.73;98030.97;5063954;28;20062;-72
2022/05/31 06:47:13;;;;;;;2.35;1.35;;;;;;;21.84;46.20;98029.56;5063917;28;20317;-72
2022/05/31 06:49:39;;;;;;;2.65;1.50;;;;;;;22.00;45.73;98040.00;5063749;28;20059;-72
2022/05/31 06:57:40;;;;;;;1.92;1.30;;;;;;;20.62;49.64;98025.00;5063835;28;20044;-71
2022/05/31 07:00:07;;;;;;;2.95;1.58;;;;;;;21.68;47.68;98044.16;5063663;28;20021;-71
2022/05/31 07:02:34;;;;;;;2.88;1.52;;;;;;;22.52;45.11;98049.38;5063556;28;20220;-71
2022/05/31 07:04:59;;;;;;;2.42;1.17;;;;;;;22.32;46.81;98046.47;5063962;28;20312;-71
2022/05/31 07:07:25;;;;;;;2.75;1.25;;;;;;;21.35;48.60;98030.53;5063700;28;20094;-71
2022/05/31 07:09:51;;;;;;;2.00;1.25;;;;;;;20.64;50.15;98028.44;5063675;28;20088;-71
2022/05/31 07:12:16;;;;;;;2.75;1.20;;;;;;;19.59;50.61;98019.56;5063723;28;20062;-71
2022/05/31 07:14:42;;;;;;;3.00;0.98;;;;;;;19.50;51.10;98012.13;5063623;28;20088;-71
2022/05/31 07:17:08;;;;;;;2.08;1.10;;;;;;;19.08;51.73;98010.34;5063587;28;20021;-71
2022/05/31 07:19:34;;;;;;;1.30;0.98;;;;;;;18.77;52.01;98012.38;5063590;28;20374;-71
2022/05/31 07:22:00;;;;;;;3.25;1.20;;;;;;;18.61;52.20;98012.44;5063463;28;20032;-71
2022/05/31 07:24:27;;;;;;;2.15;1.20;;;;;;;20.22;50.96;98025.97;5063521;28;20036;-71
2022/05/31 07:26:52;;;;;;;1.77;1.15;;;;;;;21.56;49.50;98028.97;5063478;28;20029;-71
2022/05/31 07:29:18;;;;;;;2.22;1.10;;;;;;;21.97;46.09;98026.81;5063503;28;20217;-71
2022/05/31 07:31:44;;;;;;;1.83;1.10;;;;;;;21.77;47.13;98019.41;5063434;28;20063;-71
2022/05/31 07:34:14;;;;;;;2.50;1.00;;;;;;;20.87;49.92;98014.28;5063731;28;20317;-71
2022/05/31 07:36:41;;;;;;;1.58;1.00;;;;;;;21.70;47.37;98018.13;5063485;28;20029;-71
2022/05/31 07:39:10;;;;;;;1.30;1.13;;;;;;;20.36;48.55;98009.88;5063450;28;20083;-72
2022/05/31 07:41:36;;;;;;;1.20;0.93;;;;;;;19.84;49.98;98003.59;5063335;28;20025;-72
2022/05/31 07:44:01;;;;;;;2.80;1.10;;;;;;;20.34;50.80;98014.47;5063359;28;20393;-72
2022/05/31 07:46:29;;;;;;;4.63;1.50;;;;;;;20.01;49.57;98005.16;5063553;28;20331;-71
2022/05/31 07:48:56;;;;;;;1.55;1.00;;;;;;;20.51;49.43;98014.19;5063124;28;20343;-71
2022/05/31 07:51:22;;;;;;;1.50;1.20;;;;;;;20.54;49.60;98015.78;5065597;28;20340;-71
2022/05/31 07:53:48;;;;;;;3.67;1.40;;;;;;;20.93;49.86;98011.19;5066963;28;20029;-71
2022/05/31 07:56:13;;;;;;;1.92;1.00;;;;;;;21.64;48.16;98011.38;5066924;28;20025;-71
2022/05/31 07:58:42;;;;;;;2.13;1.10;;;;;;;20.62;48.99;97998.25;5066961;28;20209;-71
2022/05/31 08:01:13;;;;;;;1.83;1.10;;;;;;;21.48;49.36;98010.78;5066749;28;20025;-71
2022/05/31 08:03:38;;;;;;;2.03;1.40;;;;;;;22.62;48.42;98012.00;5066785;28;20025;-71
2022/05/31 08:06:06;;;;;;;3.53;1.30;;;;;;;22.62;46.52;98012.00;5066709;28;20078;-71
2022/05/31 08:08:33;;;;;;;4.75;1.35;;;;;;;22.12;48.12;98014.97;5066706;28;20347;-71
2022/05/31 08:11:05;;;;;;;3.40;1.23;;;;;;;21.82;47.53;98004.69;5066675;28;20028;-71
2022/05/31 08:13:31;;;;;;;2.42;1.13;;;;;;;21.61;47.52;98003.56;5066597;28;20025;-71
2022/05/31 08:16:01;;;;;;;1.35;1.00;;;;;;;21.97;47.65;98002.69;5066547;28;20059;-71
2022/05/31 08:18:26;;;;;;;1.50;1.00;;;;;;;22.22;48.01;98006.13;5066529;28;20025;-71
2022/05/31 08:21:04;;;;;;;2.75;1.20;;;;;;;22.87;48.09;98017.13;5066433;28;20088;-71
2022/05/31 08:23:30;;;;;;;1.77;0.93;;;;;;;22.43;48.70;98006.31;5066414;28;20055;-71
2022/05/31 08:25:55;;;;;;;1.63;1.23;;;;;;;22.21;48.35;98000.88;5066350;28;20021;-71
2022/05/31 08:28:21;;;;;;;1.05;0.95;;;;;;;22.92;46.89;98010.44;5066355;28;20063;-71
2022/05/31 08:30:49;;;;;;;1.65;1.20;;;;;;;23.16;45.34;98008.50;5066353;28;20021;-71
2022/05/31 08:33:15;;;;;;;1.95;0.98;;;;;;;24.05;43.80;98014.66;5066306;28;20051;-71
2022/05/31 08:35:40;;;;;;;1.83;1.15;;;;;;;23.50;43.71;97989.72;5066171;28;20332;-71
2022/05/31 08:38:06;;;;;;;1.83;1.02;;;;;;;24.35;42.31;98005.81;5066146;28;20043;-71
2022/05/31 08:40:42;;;;;;;2.83;1.20;;;;;;;24.56;42.93;98004.88;5066295;28;20096;-71
2022/05/31 08:43:16;;;;;;;1.00;0.88;;;;;;;24.62;40.08;98001.63;5066057;28;20021;-71
2022/05/31 08:45:57;;;;;;;1.70;1.23;;;;;;;23.92;40.48;97992.38;5065994;28;20044;-71
2022/05/31 08:48:38;;;;;;;1.40;1.10;;;;;;;24.19;41.38;97995.50;5066275;28;20032;-71
2022/05/31 08:57:00;;;;;;;0.93;0.90;;;;;;;23.77;40.30;97998.19;5065854;28;20083;-71
2022/05/31 09:00:17;;;;;;;3.33;1.02;;;;;;;23.74;41.32;97993.94;5065760;28;20051;-71
2022/05/31 09:02:53;;;;;;;2.28;1.00;;;;;;;23.39;40.44;97987.91;5053580;28;20359;-71
2022/05/31 09:05:29;;;;;;;1.35;1.00;;;;;;;23.97;41.24;97998.28;5065705;28;20020;-71
2022/05/31 09:08:27;;;;;;;1.50;1.00;;;;;;;24.20;39.42;97994.50;5065565;28;20023;-72
2022/05/31 09:11:02;;;;;;;3.60;1.10;;;;;;;25.35;40.02;98006.91;5065257;28;20267;-72
2022/05/31 09:13:38;;;;;;;4.20;1.17;;;;;;;25.28;37.93;97995.78;5065492;28;20032;-72
2022/05/31 09:16:17;;;;;;;1.58;1.10;;;;;;;25.38;37.27;98008.47;5065453;28;20025;-72
2022/05/31 09:18:50;;;;;;;3.53;1.13;;;;;;;25.59;36.31;97998.50;5065656;28;20043;-72
2022/05/31 09:21:20;;;;;;;2.03;1.10;;;;;;;26.30;36.37;98003.56;5065481;28;20259;-72
2022/05/31 09:23:46;;;;;;;1.38;1.08;;;;;;;26.55;36.71;98003.00;5065555;28;20032;-72
2022/05/31 09:26:35;;;;;;;2.13;1.17;;;;;;;26.27;35.14;97999.31;5065289;28;20057;-72
2022/05/31 09:29:10;;;;;;;4.82;1.27;;;;;;;26.80;34.87;98007.84;5065220;28;20268;-71
2022/05/31 09:32:06;;;;;;;1.83;0.90;;;;;;;26.79;33.89;98000.72;5065147;28;20028;-72
2022/05/31 09:34:53;;;;;;;2.13;1.00;;;;;;;26.89;33.79;98004.25;5065119;28;20016;-72
2022/05/31 09:37:34;;;;;;;1.73;1.00;;;;;;;26.47;33.80;98000.16;5065030;28;20316;-72
2022/05/31 09:40:08;;;;;;;5.68;0.95;;;;;;;27.06;30.54;97998.09;5064956;28;20054;-72
2022/05/31 09:42:46;;;;;;;2.70;1.05;;;;;;;26.25;31.09;98003.13;5064863;28;20029;-71
2022/05/31 09:45:17;;;;;;;3.00;1.00;;;;;;;26.33;32.20;98008.69;5064917;28;20021;-71
2022/05/31 09:47:42;;;;;;;2.58;1.25;;;;;;;27.10;32.85;98010.31;5064924;28;20045;-71
2022/05/31 09:50:09;;;;;;;1.02;0.93;;;;;;;27.54;32.92;98006.88;5064626;28;20051;-71
2022/05/31 09:52:47;;;;;;;4.03;1.00;;;;;;;27.96;33.18;98015.38;5064702;28;20088;-71
2022/05/31 09:58:20;;;;;;;1.38;0.80;;;;;;;27.65;30.83;98003.97;5064665;28;20031;-71
2022/05/31 10:01:00;;;;;;;2.15;1.00;;;;;;;26.68;29.05;97999.03;5064778;28;20236;-71
2022/05/31 10:03:40;;;;;;;1.50;1.10;;;;;;;27.62;30.51;98001.56;5064392;28;20092;-71
2022/05/31 10:06:12;;;;;;;1.92;1.20;;;;;;;27.58;31.92;97999.34;5064488;28;20029;-71
2022/05/31 10:08:37;;;;;;;1.52;0.90;;;;;;;27.98;30.87;98003.38;5064443;28;20020;-71
2022/05/31 10:11:12;;;;;;;1.05;0.95;;;;;;;28.24;30.32;97998.91;5064404;28;20259;-71
2022/05/31 10:13:43;;;;;;;2.25;1.30;;;;;;;28.42;31.01;97999.78;5064115;28;20248;-71
2022/05/31 10:16:18;;;;;;;1.40;0.93;;;;;;;27.09;29.69;97997.78;5064357;28;20070;-71
2022/05/31 10:18:56;;;;;;;2.88;1.20;;;;;;;27.83;29.61;98004.00;5064320;28;20028;-71
2022/05/31 10:21:30;;;;;;;1.75;1.23;;;;;;;27.69;30.36;98002.69;5064177;28;20028;-71
2022/05/31 10:24:00;;;;;;;1.50;0.90;;;;;;;26.84;29.79;97999.28;5064426;28;20104;-71
2022/05/31 10:26:32;;;;;;;1.30;1.02;;;;;;;27.03;31.95;97992.97;5064164;28;20032;-71
2022/05/31 10:29:36;;;;;;;1.48;0.95;;;;;;;27.18;30.32;97986.13;5064167;28;20025;-71
2022/05/31 10:32:20;;;;;;;2.00;1.30;;;;;;;25.75;33.56;97980.78;5061051;28;20427;-71
2022/05/31 10:34:47;;;;;;;1.73;1.00;;;;;;;26.97;32.22;97998.97;5064039;28;20083;-71
2022/05/31 10:37:57;;;;;;;2.25;0.80;;;;;;;27.44;30.50;97995.28;5063965;28;20021;-71
2022/05/31 10:40:47;;;;;;;1.77;0.95;;;;;;;27.36;31.95;97984.34;5047285;28;20324;-71
2022/05/31 10:43:32;;;;;;;4.90;1.15;;;;;;;27.50;33.76;97983.00;5064187;28;20033;-71
2022/05/31 10:45:58;;;;;;;2.80;1.35;;;;;;;27.33;31.47;97973.81;5063934;28;20224;-71
2022/05/31 10:48:25;;;;;;;2.25;1.20;;;;;;;27.32;33.04;97982.94;5063912;28;20329;-71
2022/05/31 10:51:07;;;;;;;4.63;1.10;;;;;;;27.84;31.34;97984.91;5063707;28;20056;-71
2022/05/31 10:53:58;;;;;;;2.00;1.08;;;;;;;27.99;30.63;97982.56;5063803;28;20028;-71
2022/05/31 10:56:50;;;;;;;1.48;1.00;;;;;;;27.09;30.46;97970.78;5063842;28;20025;-71
2022/05/31 10:59:17;;;;;;;;;;;;;;;26.86;31.70;97974.84;5055935;28;20047;-71
2022/05/31 11:02:12;;;;;;;1.48;1.02;;;;;;;26.17;31.33;97973.34;5063676;28;20123;-71
2022/05/31 11:04:50;;;;;;;1.90;1.00;;;;;;;25.69;34.15;97977.78;5063717;28;20091;-71
2022/05/31 11:07:41;;;;;;;1.02;0.93;;;;;;;24.94;34.98;97970.13;5063729;28;20051;-71
2022/05/31 11:13:59;;;;;;;1.58;0.88;;;;;;;25.15;35.30;97987.09;5063654;28;20040;-71
2022/05/31 11:16:37;;;;;;;4.15;1.00;;;;;;;24.57;35.57;97968.03;5063669;28;20048;-71
2022/05/31 11:19:17;;;;;;;3.67;1.10;;;;;;;24.37;36.49;97975.13;5063648;28;20050;-71
2022/05/31 11:22:19;;;;;;;2.67;1.17;;;;;;;24.47;37.54;97973.34;5063525;28;20036;-71
2022/05/31 11:25:09;;;;;;;1.63;1.30;;;;;;;24.66;37.30;97978.91;5063620;28;20361;-71
2022/05/31 11:28:04;;;;;;;7.13;1.30;;;;;;;24.59;36.41;97983.06;5067494;28;20087;-71
2022/05/31 11:30:41;;;;;;;2.15;1.05;;;;;;;24.62;34.34;97977.41;5067403;28;20036;-71
2022/05/31 11:33:32;;;;;;;3.25;1.42;;;;;;;24.36;35.69;97983.34;5067401;28;20028;-71
2022/05/31 11:36:28;;;;;;;1.48;0.82;;;;;;;24.25;37.75;97973.47;5067591;28;20088;-71
2022/05/31 11:38:59;;;;;;;2.72;1.20;;;;;;;23.68;38.88;97972.94;5067316;28;20020;-71
2022/05/31 11:41:39;;;;;;;3.83;1.25;;;;;;;23.19;38.92;97964.41;5067177;28;20029;-71
2022/05/31 11:44:26;;;;;;;2.25;0.90;;;;;;;23.75;39.50;97990.25;5067222;28;20050;-71
2022/05/31 11:47:04;;;;;;;1.65;1.13;;;;;;;24.20;38.21;97986.44;5067152;28;20036;-71
2022/05/31 11:49:52;;;;;;;1.30;1.02;;;;;;;23.80;37.72;97981.81;5066977;28;20037;-71
2022/05/31 11:52:46;;;;;;;4.82;1.40;;;;;;;23.24;39.25;97984.63;5066932;28;20021;-71
2022/05/31 11:55:25;;;;;;;3.22;1.20;;;;;;;23.24;39.81;97978.38;5066980;28;20324;-71
2022/05/31 11:58:14;;;;;;;2.42;1.45;;;;;;;23.19;39.92;97975.16;5066883;28;20028;-71
2022/05/31 12:00:59;;;;;;;2.08;1.40;;;;;;;23.06;38.41;97990.53;5066809;28;20066;-71
2022/05/31 12:03:57;;;;;;;2.83;1.17;;;;;;;23.48;38.42;97992.53;5067075;28;20021;-71
2022/05/31 12:06:38;;;;;;;1.35;1.02;;;;;;;23.14;38.35;97982.75;5057747;28;20270;-71
2022/05/31 12:09:14;;;;;;;1.67;1.10;;;;;;;22.78;39.84;97991.03;5066732;28;20020;-71
2022/05/31 12:12:03;;;;;;;1.33;1.10;;;;;;;23.01;39.38;97995.44;5066626;28;20017;-71
2022/05/31 12:14:35;;;;;;;0.90;0.75;;;;;;;23.09;36.79;97979.56;5066629;28;20032;-71
2022/05/31 12:17:01;;;;;;;2.95;1.40;;;;;;;22.78;40.93;97988.34;5066598;28;20331;-71
2022/05/31 12:19:54;;;;;;;3.67;1.33;;;;;;;22.81;42.10;97980.06;5066433;28;20029;-71